Time;durP1;ratioP1;P1;durP2;ratioP2;P2;SDS_P1;SDS_P2;PMS_P1;PMS_P2;Temp;Humidity;BMP_temperature;BMP_pressure;BME280_temperature;BME280_humidity;BME280_pressure;Samples;Min_cycle;Max_cycle;Signal;HPM_P1;HPM_P2
2022/08/15 18:29:30;;;;;;;14.48;13.02;;;;;;;26.80;53.08;100425.75;5773669;22;20058;-86
2022/08/15 18:32:06;;;;;;;14.27;12.95;;;;;;;26.84;53.03;100426.50;4976995;28;20031;-89
2022/08/15 18:34:48;;;;;;;15.70;14.38;;;;;;;26.89;52.57;100434.38;4977609;28;20038;-89
2022/08/15 18:37:26;;;;;;;18.70;17.05;;;;;;;27.06;52.34;100433.28;4977507;28;20039;-86
2022/08/15 18:42:59;;;;;;;16.10;14.77;;;;;;;26.99;52.24;100443.81;4981877;28;20045;-87
2022/08/15 18:45:38;;;;;;;12.70;11.70;;;;;;;27.03;52.17;100455.72;4978309;28;20106;-85
2022/08/15 18:48:25;;;;;;;15.90;14.60;;;;;;;27.18;51.37;100457.03;4986096;28;20038;-84
2022/08/15 18:51:08;;;;;;;11.55;9.77;;;;;;;27.13;51.80;100462.34;4981987;28;20268;-84
2022/08/15 18:54:09;;;;;;;12.95;11.00;;;;;;;26.94;52.27;100467.53;4982803;28;20381;-87
2022/08/15 18:56:48;;;;;;;12.27;11.05;;;;;;;27.09;51.86;100470.84;4982156;28;20385;-84
2022/08/15 18:59:32;;;;;;;12.70;10.23;;;;;;;27.03;51.97;100478.16;4983354;28;20088;-85
2022/08/15 19:02:35;;;;;;;12.00;10.57;;;;;;;27.07;52.11;100485.31;4982738;28;20029;-89
2022/08/15 19:05:07;;;;;;;12.52;11.43;;;;;;;27.04;51.92;100499.41;4982452;28;20034;-86
2022/08/15 19:07:53;;;;;;;13.23;10.80;;;;;;;27.05;51.44;100499.00;4999931;28;20481;-87
2022/08/15 19:10:24;;;;;;;13.38;11.40;;;;;;;27.07;51.40;100504.94;4990624;28;20476;-87
2022/08/15 19:13:13;;;;;;;18.00;15.30;;;;;;;27.05;51.38;100509.38;4984433;28;20617;-88
2022/08/15 19:15:57;;;;;;;17.60;14.63;;;;;;;26.96;51.73;100514.75;4985604;28;20381;-85
2022/08/15 19:18:22;;;;;;;14.75;12.52;;;;;;;26.90;51.90;100520.06;4979199;28;20113;-86
2022/08/15 19:20:50;;;;;;;14.13;11.02;;;;;;;26.92;51.81;100528.84;5002609;28;20450;-84
2022/08/15 19:23:16;;;;;;;10.38;9.38;;;;;;;26.97;51.53;100531.13;4977112;28;20421;-83
2022/08/15 19:25:52;;;;;;;11.40;8.98;;;;;;;26.97;51.58;100525.53;4974746;28;20038;-83
2022/08/15 19:28:35;;;;;;;11.00;9.65;;;;;;;26.95;51.50;100530.78;4974754;28;20027;-86
2022/08/15 19:31:26;;;;;;;10.15;8.55;;;;;;;26.95;51.55;100527.97;4980458;28;20053;-82
2022/08/15 19:34:16;;;;;;;10.65;8.52;;;;;;;26.92;51.48;100537.25;4974890;28;20077;-82
2022/08/15 19:37:37;;;;;;;12.77;8.75;;;;;;;26.93;51.30;100541.63;4970692;28;20461;-83
2022/08/15 19:40:08;;;;;;;11.57;9.20;;;;;;;26.91;51.26;100544.09;4981465;28;20038;-83
2022/08/15 19:42:35;;;;;;;9.70;8.70;;;;;;;26.84;51.21;100544.22;4983960;28;20105;-83
2022/08/15 19:45:33;;;;;;;11.40;9.20;;;;;;;26.70;51.86;100547.28;5004371;28;20062;-83
2022/08/15 19:48:20;;;;;;;10.70;8.60;;;;;;;26.67;51.71;100548.91;4980981;28;20022;-86
2022/08/15 19:54:10;;;;;;;13.32;8.60;;;;;;;26.65;50.97;100553.38;4979227;28;20489;-83
2022/08/15 19:57:00;;;;;;;11.40;9.00;;;;;;;26.62;50.46;100565.44;4975485;28;20101;-86
2022/08/15 19:59:34;;;;;;;9.65;7.95;;;;;;;26.60;51.04;100571.50;4975333;28;20027;-83
2022/08/15 20:02:26;;;;;;;8.95;8.05;;;;;;;26.39;51.29;100574.66;4976638;28;20393;-85
2022/08/15 20:05:24;;;;;;;11.52;7.50;;;;;;;26.44;50.96;100572.13;4979693;28;20121;-83
2022/08/15 20:08:17;;;;;;;11.77;7.05;;;;;;;26.43;50.83;100578.94;4978806;28;20038;-82
2022/08/15 20:10:55;;;;;;;8.55;7.40;;;;;;;26.41;50.83;100580.59;4975159;28;20026;-82
2022/08/15 20:13:28;;;;;;;10.95;7.35;;;;;;;26.34;50.84;100589.88;4973711;28;20122;-84
2022/08/15 20:16:09;;;;;;;10.00;7.47;;;;;;;26.27;51.07;100590.78;4974011;28;20037;-85
2022/08/15 20:18:53;;;;;;;10.68;8.52;;;;;;;26.28;50.92;100592.38;4975089;28;20025;-81
2022/08/15 20:21:37;;;;;;;10.05;6.82;;;;;;;26.21;50.95;100595.28;4975316;28;20022;-82
2022/08/15 20:24:19;;;;;;;11.73;6.25;;;;;;;26.20;51.09;100593.69;4974165;28;20027;-85
2022/08/15 20:26:51;;;;;;;9.32;7.55;;;;;;;26.17;51.11;100590.97;4975162;28;20027;-87
2022/08/15 20:29:29;;;;;;;9.32;5.93;;;;;;;26.20;51.02;100596.50;4973431;28;20089;-83
2022/08/15 20:32:01;;;;;;;8.77;6.55;;;;;;;26.14;50.92;100591.78;4975174;28;20027;-86
2022/08/15 20:34:31;;;;;;;6.88;6.15;;;;;;;26.14;50.87;100591.78;4974891;28;20030;-83
2022/08/15 20:37:02;;;;;;;9.45;6.35;;;;;;;26.14;50.89;100600.19;4974903;28;20045;-83
2022/08/15 20:39:31;;;;;;;7.22;6.47;;;;;;;26.17;50.80;100590.97;4973382;28;20065;-85
2022/08/15 20:42:03;;;;;;;9.95;6.25;;;;;;;26.24;50.83;100597.25;4974779;28;20023;-83
2022/08/15 20:44:49;;;;;;;6.88;6.18;;;;;;;26.17;50.62;100602.94;4973450;28;20023;-86
2022/08/15 20:47:53;;;;;;;8.15;6.63;;;;;;;26.21;50.66;100602.88;4972912;28;20031;-86
2022/08/15 20:50:24;;;;;;;9.85;6.90;;;;;;;26.12;50.75;100605.44;4954255;28;20042;-84
2022/08/15 20:52:51;;;;;;;9.10;6.60;;;;;;;26.21;50.38;100602.88;4973521;28;20058;-86
2022/08/15 20:55:31;;;;;;;10.35;6.80;;;;;;;26.15;50.81;100616.59;4973617;28;20033;-87
2022/08/15 20:57:58;;;;;;;6.78;5.82;;;;;;;26.10;50.86;100613.47;4974726;28;20030;-83
2022/08/15 21:00:24;;;;;;;6.72;5.97;;;;;;;26.13;50.58;100612.59;4973040;28;20062;-83
2022/08/15 21:03:19;;;;;;;8.55;6.18;;;;;;;26.09;50.59;100621.06;4974663;28;20037;-86
2022/08/15 21:05:56;;;;;;;10.27;6.97;;;;;;;25.99;50.78;100619.19;4973007;28;20066;-82
2022/08/15 21:08:52;;;;;;;5.97;5.20;;;;;;;25.98;50.62;100618.41;4972941;28;20058;-83
2022/08/15 21:11:49;;;;;;;9.27;6.47;;;;;;;25.99;50.43;100620.00;4973383;28;20029;-81
2022/08/15 21:14:38;;;;;;;7.20;5.82;;;;;;;25.99;50.45;100622.78;4974483;28;20038;-83
2022/08/15 21:17:22;;;;;;;6.35;5.75;;;;;;;25.92;50.46;100625.72;4972909;28;20022;-83
2022/08/15 21:20:05;;;;;;;7.90;5.75;;;;;;;25.89;50.52;100620.94;4974712;28;20031;-85
2022/08/15 21:22:46;;;;;;;8.48;6.10;;;;;;;25.92;50.30;100625.72;4974647;28;20093;-87
2022/08/15 21:25:32;;;;;;;7.38;5.50;;;;;;;25.87;50.02;100633.78;4972844;28;20046;-87
2022/08/15 21:28:08;;;;;;;8.32;6.47;;;;;;;25.82;50.20;100637.81;4973605;28;20030;-89
2022/08/15 21:30:53;;;;;;;10.10;6.47;;;;;;;25.84;50.29;100635.38;4973282;28;20047;-85
2022/08/15 21:33:40;;;;;;;7.80;6.38;;;;;;;25.82;50.09;100643.41;4974332;28;20077;-87
2022/08/15 21:36:20;;;;;;;8.30;5.88;;;;;;;25.73;50.32;100643.94;4974047;28;20038;-84
2022/08/15 21:39:04;;;;;;;11.75;6.20;;;;;;;25.55;50.73;100639.75;4972734;28;20503;-84
2022/08/15 21:41:40;;;;;;;8.15;6.05;;;;;;;25.57;50.17;100648.50;4972901;28;20031;-84
2022/08/15 21:44:38;;;;;;;9.38;6.40;;;;;;;25.59;50.07;100651.69;4974011;28;20050;-84
2022/08/15 21:47:33;;;;;;;7.82;6.03;;;;;;;25.59;50.17;100652.47;4973054;28;20026;-85
2022/08/15 21:50:37;;;;;;;7.60;6.25;;;;;;;25.58;50.46;100650.88;4973142;28;20027;-86
2022/08/15 21:53:32;;;;;;;8.55;6.95;;;;;;;25.66;50.05;100651.59;4972798;28;20050;-86
2022/08/15 21:56:12;;;;;;;10.10;6.38;;;;;;;25.58;50.27;100655.69;4974056;28;20126;-85
2022/08/15 21:58:55;;;;;;;10.23;7.57;;;;;;;25.58;50.07;100652.91;4972941;28;20140;-85
2022/08/15 22:01:58;;;;;;;7.00;6.13;;;;;;;25.57;50.08;100662.50;4974190;28;20019;-86
2022/08/15 22:04:34;;;;;;;9.88;6.57;;;;;;;25.60;49.90;100656.84;4972614;28;20031;-84
2022/08/15 22:06:59;;;;;;;17.20;7.80;;;;;;;25.58;49.89;100653.69;4972792;28;20023;-86
2022/08/15 22:09:25;;;;;;;7.50;6.70;;;;;;;25.57;50.28;100654.91;4972587;28;20030;-85
2022/08/15 22:11:53;;;;;;;15.93;11.55;;;;;;;25.55;50.35;100650.94;4972758;28;20110;-86
2022/08/15 22:14:19;;;;;;;32.20;24.17;;;;;;;25.53;49.91;100656.94;4972783;28;20407;-85
2022/08/15 22:16:47;;;;;;;41.75;26.92;;;;;;;25.51;50.38;100655.78;4972199;28;20039;-84
2022/08/15 22:19:14;;;;;;;36.83;26.30;;;;;;;25.43;50.25;100658.66;4972597;28;20031;-86
2022/08/15 22:21:45;;;;;;;14.60;7.60;;;;;;;25.39;50.46;100660.72;4973781;28;20031;-84
2022/08/15 22:24:16;;;;;;;26.65;17.08;;;;;;;25.35;50.62;100664.75;4972766;28;20027;-84
2022/08/15 22:26:43;;;;;;;7.30;5.55;;;;;;;25.23;50.62;100657.66;4972548;28;20126;-86
2022/08/15 22:29:32;;;;;;;7.32;5.57;;;;;;;25.12;50.69;100663.38;4972406;28;20034;-84
2022/08/15 22:32:05;;;;;;;18.15;10.55;;;;;;;25.14;50.52;100666.53;4972479;28;20022;-84
2022/08/15 22:34:30;;;;;;;10.95;6.65;;;;;;;25.12;50.69;100668.16;4971962;28;20089;-85
2022/08/15 22:36:56;;;;;;;12.13;6.18;;;;;;;25.15;50.78;100665.31;4976856;28;20473;-84
2022/08/15 22:39:22;;;;;;;10.57;5.30;;;;;;;25.13;50.77;100681.72;4976000;28;20034;-84
2022/08/15 22:41:50;;;;;;;7.57;4.82;;;;;;;25.11;50.60;100680.56;4976037;28;20027;-85
2022/08/15 22:44:24;;;;;;;7.15;4.43;;;;;;;25.12;50.57;100690.53;4975396;28;20050;-82
2022/08/15 22:46:51;;;;;;;8.52;4.65;;;;;;;25.20;50.33;100691.25;4976889;28;20027;-83
2022/08/15 22:49:21;;;;;;;9.35;5.35;;;;;;;25.12;50.48;100694.13;4975465;28;20516;-83
2022/08/15 22:51:51;;;;;;;5.15;4.18;;;;;;;25.11;50.56;100700.13;4976759;28;20029;-83
2022/08/15 22:54:20;;;;;;;6.93;4.50;;;;;;;25.15;49.91;100695.28;4976859;28;20038;-83
2022/08/15 22:56:52;;;;;;;6.95;4.65;;;;;;;25.14;49.95;100700.09;4975972;28;20066;-86
2022/08/15 22:59:20;;;;;;;5.72;4.32;;;;;;;25.15;50.02;100700.88;4976554;28;20035;-85
2022/08/15 23:01:53;;;;;;;9.90;3.85;;;;;;;25.08;49.98;100703.75;4975944;28;20496;-84
2022/08/15 23:04:32;;;;;;;6.43;3.75;;;;;;;25.02;49.84;100703.38;4975495;28;20030;-86
2022/08/15 23:07:09;;;;;;;9.43;4.18;;;;;;;24.98;49.69;100701.81;4975632;28;20394;-86
2022/08/15 23:09:37;;;;;;;4.65;3.92;;;;;;;24.98;49.83;100704.59;4975704;28;20081;-83
2022/08/15 23:12:09;;;;;;;9.23;4.53;;;;;;;24.91;49.77;100702.66;4991138;28;20034;-84
2022/08/15 23:14:38;;;;;;;5.85;4.00;;;;;;;25.04;49.14;100703.78;4975306;28;20126;-84
2022/08/15 23:17:12;;;;;;;6.80;4.22;;;;;;;24.99;49.16;100709.78;4975154;28;20030;-84
2022/08/15 23:20:00;;;;;;;4.60;3.60;;;;;;;24.91;49.26;100709.03;4976522;28;20507;-87
2022/08/15 23:22:29;;;;;;;8.10;4.32;;;;;;;24.94;49.20;100703.81;4975254;28;20401;-83
2022/08/15 23:24:56;;;;;;;7.35;4.25;;;;;;;24.93;49.27;100711.41;4974927;28;20502;-84
2022/08/15 23:27:26;;;;;;;5.55;4.13;;;;;;;24.87;49.13;100711.09;4975695;28;20478;-84
2022/08/15 23:29:52;;;;;;;6.45;4.25;;;;;;;24.98;48.81;100702.59;4974902;28;20121;-84
2022/08/15 23:32:29;;;;;;;9.60;4.40;;;;;;;24.98;48.73;100702.59;4975118;28;20034;-87
2022/08/15 23:34:59;;;;;;;5.18;4.22;;;;;;;25.02;48.73;100708.19;4974994;28;20065;-84
2022/08/15 23:37:32;;;;;;;5.40;4.50;;;;;;;24.99;48.39;100712.56;4976197;28;20426;-85
2022/08/15 23:40:19;;;;;;;11.40;5.18;;;;;;;24.94;48.51;100704.66;4974999;28;20030;-84
2022/08/15 23:42:51;;;;;;;7.68;4.65;;;;;;;25.05;48.20;100707.38;4975490;28;20027;-84
2022/08/15 23:45:19;;;;;;;10.70;4.60;;;;;;;25.02;48.26;100711.75;4974590;28;20516;-83
2022/08/15 23:47:44;;;;;;;6.43;4.30;;;;;;;24.85;48.72;100707.88;4974083;28;20389;-83
2022/08/15 23:50:13;;;;;;;8.18;4.57;;;;;;;24.98;48.09;100704.59;4975902;28;20023;-85
2022/08/15 23:52:40;;;;;;;8.27;5.00;;;;;;;24.94;48.34;100706.63;4974535;28;20037;-84
2022/08/15 23:55:14;;;;;;;7.97;4.53;;;;;;;24.83;48.79;100707.50;4974673;28;20030;-85
2022/08/15 23:57:41;;;;;;;5.38;4.28;;;;;;;24.89;48.68;100699.50;4975999;28;20023;-84
